createdAt,value
2018-09-07T00:02:19.721Z,73.77
2018-09-07T00:04:48.985Z,88.33
2018-09-07T00:07:18.060Z,85.37
2018-09-07T00:09:47.174Z,84.67
2018-09-07T00:12:16.238Z,85.50
2018-09-07T00:14:45.337Z,87.90
2018-09-07T00:17:14.433Z,84.10
2018-09-07T00:19:43.565Z,79.20
2018-09-07T00:22:12.685Z,90.77
2018-09-07T00:24:41.746Z,82.60
2018-09-07T00:27:10.903Z,80.83
2018-09-07T00:29:40.038Z,72.23
2018-09-07T00:32:09.261Z,62.60
2018-09-07T00:34:38.551Z,66.90
2018-09-07T00:37:07.650Z,69.53
2018-09-07T00:39:36.833Z,67.30
2018-09-07T00:42:05.935Z,66.70
2018-09-07T00:44:35.235Z,72.87
2018-09-07T00:47:04.359Z,72.17
2018-09-07T00:49:33.546Z,68.90
2018-09-07T00:52:02.779Z,73.33
2018-09-07T00:54:31.852Z,71.83
2018-09-07T00:57:00.979Z,80.77
2018-09-07T00:59:30.081Z,81.87
2018-09-07T01:01:59.674Z,83.63
2018-09-07T01:04:28.884Z,69.70
2018-09-07T01:06:58.113Z,75.47
2018-09-07T01:09:27.275Z,69.80
2018-09-07T01:11:56.432Z,78.00
2018-09-07T01:14:25.603Z,68.87
2018-09-07T01:16:54.847Z,82.00
2018-09-07T01:19:23.924Z,78.60
2018-09-07T01:21:53.010Z,79.17
2018-09-07T01:24:22.198Z,74.00
2018-09-07T01:26:51.270Z,70.40
2018-09-07T01:29:20.344Z,77.77
2018-09-07T01:31:49.810Z,78.00
2018-09-07T01:34:26.990Z,73.27
2018-09-07T01:37:02.285Z,78.93
2018-09-07T01:39:31.464Z,71.87
2018-09-07T01:42:00.605Z,79.87
2018-09-07T01:44:29.809Z,73.80
2018-09-07T01:46:58.944Z,75.97
2018-09-07T01:49:28.038Z,75.33
2018-09-07T01:51:57.197Z,90.33
2018-09-07T01:54:26.344Z,84.63
2018-09-07T01:56:55.565Z,86.00
2018-09-07T01:59:24.738Z,76.43
2018-09-07T02:01:53.844Z,74.87
2018-09-07T02:04:23.084Z,75.80
2018-09-07T02:06:52.144Z,80.60
2018-09-07T02:09:21.331Z,80.60
2018-09-07T02:11:50.561Z,89.47
2018-09-07T02:14:19.712Z,84.03
2018-09-07T02:16:48.841Z,96.00
2018-09-07T02:19:18.058Z,96.23
2018-09-07T02:21:47.165Z,84.40
2018-09-07T02:24:16.272Z,87.97
2018-09-07T02:26:45.392Z,97.43
2018-09-07T02:29:14.531Z,88.33
2018-09-07T02:31:43.681Z,92.57
2018-09-07T02:34:12.863Z,101.17
2018-09-07T02:36:41.974Z,85.33
2018-09-07T02:39:11.174Z,89.97
2018-09-07T02:41:40.476Z,91.90
2018-09-07T02:44:09.597Z,104.27
2018-09-07T02:46:38.772Z,92.93
2018-09-07T02:49:07.881Z,96.00
2018-09-07T02:51:36.992Z,106.90
2018-09-07T02:54:06.154Z,104.17
2018-09-07T02:56:35.216Z,86.10
2018-09-07T02:59:04.382Z,97.03
2018-09-07T03:01:33.539Z,106.33
2018-09-07T03:04:02.696Z,92.77
2018-09-07T03:06:31.881Z,97.17
2018-09-07T03:09:01.081Z,93.30
2018-09-07T03:11:30.329Z,108.23
2018-09-07T03:13:59.557Z,104.27
2018-09-07T03:16:28.760Z,113.90
2018-09-07T03:19:01.842Z,101.23
2018-09-07T03:21:31.094Z,112.40
2018-09-07T03:24:00.397Z,123.43
2018-09-07T03:26:29.655Z,111.50
2018-09-07T03:28:58.841Z,106.03
2018-09-07T03:31:28.027Z,108.57
2018-09-07T03:33:57.184Z,119.07
2018-09-07T03:36:26.352Z,108.73
2018-09-07T03:38:55.806Z,107.03
2018-09-07T03:41:24.965Z,104.57
2018-09-07T03:43:54.185Z,115.80
2018-09-07T03:46:23.382Z,116.00
2018-09-07T03:48:52.484Z,112.70
2018-09-07T03:51:21.608Z,127.50
2018-09-07T03:53:50.709Z,126.97
2018-09-07T03:56:19.801Z,143.00
2018-09-07T03:58:48.982Z,144.80
2018-09-07T04:01:18.160Z,149.77
2018-09-07T04:03:47.346Z,141.83
2018-09-07T04:06:23.231Z,149.80
2018-09-07T04:08:52.355Z,157.40
2018-09-07T04:11:21.564Z,148.57
2018-09-07T04:13:50.660Z,149.77
2018-09-07T04:16:19.823Z,146.63
2018-09-07T04:18:48.978Z,152.70
2018-09-07T04:21:18.148Z,140.23
2018-09-07T04:23:47.413Z,136.37
2018-09-07T04:26:16.604Z,138.80
2018-09-07T04:28:45.969Z,130.97
2018-09-07T04:31:15.106Z,134.93
2018-09-07T04:33:44.297Z,120.47
2018-09-07T04:36:13.650Z,122.10
2018-09-07T04:38:43.037Z,128.93
2018-09-07T04:41:12.388Z,125.47
2018-09-07T04:43:41.609Z,122.70
2018-09-07T04:46:10.852Z,114.77
2018-09-07T04:48:39.969Z,111.67
2018-09-07T04:51:09.223Z,126.93
2018-09-07T04:53:38.603Z,127.90
2018-09-07T04:56:08.153Z,116.03
2018-09-07T04:58:37.271Z,106.77
2018-09-07T05:01:06.399Z,113.40
2018-09-07T05:03:35.631Z,113.80
2018-09-07T05:06:04.721Z,113.57
2018-09-07T05:08:34.025Z,110.70
2018-09-07T05:11:03.155Z,115.43
2018-09-07T05:13:32.295Z,109.50
2018-09-07T05:16:01.472Z,115.40
2018-09-07T05:18:30.544Z,123.03
2018-09-07T05:20:59.660Z,109.43
2018-09-07T05:23:28.727Z,104.83
2018-09-07T05:25:57.813Z,101.27
2018-09-07T05:28:26.942Z,115.40
2018-09-07T05:30:56.130Z,99.07
2018-09-07T05:33:25.476Z,101.07
2018-09-07T05:35:54.701Z,104.73
2018-09-07T05:38:23.854Z,94.10
2018-09-07T05:40:53.136Z,109.47
2018-09-07T05:43:22.316Z,103.57
2018-09-07T05:45:51.446Z,97.10
2018-09-07T05:48:20.639Z,101.60
2018-09-07T05:50:49.820Z,90.70
2018-09-07T05:53:18.966Z,98.47
2018-09-07T05:55:48.062Z,91.83
2018-09-07T05:58:17.271Z,93.00
2018-09-07T06:00:46.509Z,85.37
2018-09-07T06:03:15.704Z,91.40
2018-09-07T06:05:44.799Z,87.90
2018-09-07T06:08:13.820Z,74.70
2018-09-07T06:10:42.950Z,81.20
2018-09-07T06:13:12.048Z,68.87
2018-09-07T06:15:41.115Z,61.10
2018-09-07T06:18:10.258Z,67.17
2018-09-07T06:20:39.371Z,64.80
2018-09-07T06:23:09.025Z,67.37
2018-09-07T06:25:38.234Z,59.03
2018-09-07T06:28:07.393Z,62.17
2018-09-07T06:30:37.219Z,56.07
2018-09-07T06:33:06.548Z,52.70
2018-09-07T06:35:36.008Z,56.37
2018-09-07T06:38:05.267Z,56.67
2018-09-07T06:40:34.798Z,57.40
2018-09-07T06:43:09.870Z,51.40
2018-09-07T06:45:39.030Z,52.57
2018-09-07T06:48:08.446Z,47.07
2018-09-07T06:50:40.004Z,51.30
2018-09-07T06:53:09.237Z,46.90
2018-09-07T06:55:38.729Z,40.77
2018-09-07T06:58:07.909Z,38.40
2018-09-07T07:00:37.061Z,30.03
2018-09-07T07:03:17.181Z,30.27
2018-09-07T07:05:46.403Z,39.60
2018-09-07T07:08:15.801Z,30.67
2018-09-07T07:10:44.918Z,27.40
2018-09-07T07:13:15.178Z,23.27
2018-09-07T07:15:44.594Z,19.20
2018-09-07T07:18:13.649Z,21.50
2018-09-07T07:20:42.740Z,22.97
2018-09-07T07:23:11.948Z,21.07
2018-09-07T07:25:47.772Z,15.73
2018-09-07T07:28:16.902Z,14.87
2018-09-07T07:30:46.746Z,15.77
2018-09-07T07:33:15.927Z,15.90
2018-09-07T07:35:44.982Z,15.20
2018-09-07T07:38:14.076Z,12.30
2018-09-07T07:40:43.290Z,13.77
2018-09-07T07:43:12.372Z,16.63
2018-09-07T07:45:41.824Z,12.80
2018-09-07T07:48:11.083Z,12.10
2018-09-07T07:50:40.231Z,13.67
2018-09-07T07:53:09.529Z,9.43
2018-09-07T07:55:38.578Z,8.40
2018-09-07T07:58:07.639Z,6.90
2018-09-07T08:00:37.372Z,8.00
2018-09-07T08:03:06.432Z,7.80
2018-09-07T08:05:35.498Z,9.20
2018-09-07T08:08:04.533Z,6.80
2018-09-07T08:10:33.579Z,7.67
2018-09-07T08:13:02.832Z,5.30
2018-09-07T08:15:32.534Z,6.00
2018-09-07T08:18:02.063Z,6.20
2018-09-07T08:20:31.544Z,7.63
2018-09-07T08:23:00.973Z,5.43
2018-09-07T08:25:30.207Z,6.67
2018-09-07T08:27:59.503Z,5.57
2018-09-07T08:30:29.618Z,5.77
2018-09-07T08:32:58.857Z,7.10
2018-09-07T08:35:27.976Z,8.20
2018-09-07T08:37:57.121Z,5.83
2018-09-07T08:40:26.301Z,7.40
2018-09-07T08:42:55.377Z,6.13
2018-09-07T08:45:24.453Z,8.17
2018-09-07T08:47:53.584Z,8.63
2018-09-07T08:53:25.213Z,5.47
2018-09-07T08:55:54.304Z,11.47
2018-09-07T08:58:23.787Z,5.07
2018-09-07T09:00:52.897Z,6.60
2018-09-07T09:03:22.038Z,6.77
2018-09-07T09:05:51.455Z,7.93
2018-09-07T09:08:20.576Z,6.70
2018-09-07T09:10:49.645Z,6.00
2018-09-07T09:13:18.916Z,6.00
2018-09-07T09:15:48.145Z,6.07
2018-09-07T09:18:17.178Z,7.77
2018-09-07T09:20:46.284Z,7.47
2018-09-07T09:23:15.423Z,8.47
2018-09-07T09:25:44.516Z,5.77
2018-09-07T09:28:13.617Z,10.40
2018-09-07T09:30:42.836Z,8.63
2018-09-07T09:33:12.033Z,8.23
2018-09-07T09:35:41.316Z,11.83
2018-09-07T09:38:10.568Z,11.77
2018-09-07T09:40:39.767Z,13.17
2018-09-07T09:43:08.995Z,10.73
2018-09-07T09:45:38.242Z,10.13
2018-09-07T09:48:07.370Z,10.30
2018-09-07T09:50:36.511Z,11.47
2018-09-07T09:53:05.662Z,8.70
2018-09-07T09:55:34.738Z,9.10
2018-09-07T09:58:03.970Z,12.53
2018-09-07T10:00:38.544Z,9.73
2018-09-07T10:03:09.596Z,11.07
2018-09-07T10:05:38.769Z,9.93
2018-09-07T10:08:07.964Z,12.80
2018-09-07T10:10:37.067Z,11.53
2018-09-07T10:13:06.239Z,10.07
2018-09-07T10:15:35.363Z,12.63
2018-09-07T10:18:04.625Z,10.50
2018-09-07T10:20:33.864Z,13.70
2018-09-07T10:23:03.056Z,14.67
2018-09-07T10:25:32.361Z,16.43
2018-09-07T10:28:01.424Z,17.77
2018-09-07T10:30:30.665Z,17.80
2018-09-07T10:32:59.819Z,22.30
2018-09-07T10:35:28.959Z,17.73
2018-09-07T10:37:58.294Z,17.67
2018-09-07T10:40:27.518Z,20.50
2018-09-07T10:42:56.686Z,27.03
2018-09-07T10:45:25.876Z,19.90
2018-09-07T10:47:55.047Z,19.20
2018-09-07T10:50:24.363Z,18.47
2018-09-07T10:52:53.588Z,17.77
2018-09-07T10:55:22.791Z,15.83
2018-09-07T10:57:51.939Z,15.00
2018-09-07T11:00:21.052Z,12.80
2018-09-07T11:02:50.842Z,12.90
2018-09-07T11:05:20.101Z,9.33
2018-09-07T11:07:49.313Z,9.93
2018-09-07T11:10:18.431Z,11.50
2018-09-07T11:12:47.604Z,10.50
2018-09-07T11:15:16.781Z,10.90
2018-09-07T11:17:45.854Z,9.43
2018-09-07T11:20:14.980Z,8.50
2018-09-07T11:22:44.095Z,10.93
2018-09-07T11:25:13.182Z,12.97
2018-09-07T11:27:42.229Z,11.03
2018-09-07T11:30:11.348Z,9.83
2018-09-07T11:32:40.439Z,8.00
2018-09-07T11:35:09.499Z,6.93
2018-09-07T11:37:38.584Z,10.20
2018-09-07T11:40:07.680Z,6.43
2018-09-07T11:42:36.809Z,6.53
2018-09-07T11:45:12.973Z,5.60
2018-09-07T11:47:42.029Z,6.47
2018-09-07T11:50:15.542Z,7.13
2018-09-07T11:52:44.666Z,4.50
2018-09-07T11:55:13.754Z,6.63
2018-09-07T11:57:42.845Z,7.03
2018-09-07T12:00:11.979Z,6.33
2018-09-07T12:02:41.183Z,7.53
2018-09-07T12:05:10.533Z,7.43
2018-09-07T12:07:40.027Z,5.97
2018-09-07T12:10:09.337Z,5.63
2018-09-07T12:12:39.051Z,6.83
2018-09-07T12:15:08.417Z,4.57
2018-09-07T12:17:37.651Z,6.97
2018-09-07T12:20:06.863Z,5.67
2018-09-07T12:22:36.416Z,6.33
2018-09-07T12:25:05.907Z,6.17
2018-09-07T12:27:35.119Z,6.93
2018-09-07T12:30:04.363Z,6.23
2018-09-07T12:32:33.516Z,6.00
2018-09-07T12:35:02.648Z,10.10
2018-09-07T12:37:31.788Z,8.30
2018-09-07T12:40:00.993Z,6.23
2018-09-07T12:42:30.053Z,6.80
2018-09-07T12:45:01.713Z,6.40
2018-09-07T12:47:30.832Z,7.10
2018-09-07T12:50:00.042Z,7.17
2018-09-07T12:52:29.189Z,14.67
2018-09-07T12:54:58.447Z,8.50
2018-09-07T12:57:27.887Z,12.60
2018-09-07T12:59:57.101Z,8.33
2018-09-07T13:02:26.205Z,10.63
2018-09-07T13:04:55.349Z,11.57
2018-09-07T13:07:24.489Z,11.73
2018-09-07T13:09:53.604Z,11.40
2018-09-07T13:12:22.731Z,10.30
2018-09-07T13:14:52.037Z,8.43
2018-09-07T13:17:21.282Z,10.63
2018-09-07T13:19:50.577Z,10.37
2018-09-07T13:22:19.715Z,13.80
2018-09-07T13:24:49.508Z,14.30
2018-09-07T13:27:18.818Z,10.77
2018-09-07T13:29:48.200Z,10.43
2018-09-07T13:32:17.703Z,17.87
2018-09-07T13:34:46.886Z,11.20
2018-09-07T13:37:16.204Z,11.43
2018-09-07T13:39:45.400Z,14.57
2018-09-07T13:42:14.542Z,14.83
2018-09-07T13:44:43.715Z,16.77
2018-09-07T13:47:12.878Z,15.53
2018-09-07T13:49:42.034Z,18.80
2018-09-07T13:52:11.150Z,18.83
2018-09-07T13:54:40.393Z,24.67
2018-09-07T13:57:09.509Z,16.97
2018-09-07T13:59:38.643Z,18.57
2018-09-07T14:02:07.797Z,20.80
2018-09-07T14:04:37.173Z,25.93
2018-09-07T14:07:06.526Z,19.80
2018-09-07T14:09:35.665Z,20.00
2018-09-07T14:12:04.824Z,23.97
2018-09-07T14:14:34.003Z,30.43
2018-09-07T14:17:03.279Z,23.20
2018-09-07T14:19:32.437Z,21.40
2018-09-07T14:22:01.590Z,23.50
2018-09-07T14:24:30.849Z,23.13
2018-09-07T14:27:00.055Z,22.97
2018-09-07T14:29:30.154Z,23.73
2018-09-07T14:31:59.570Z,21.20
2018-09-07T14:34:28.819Z,26.60
2018-09-07T14:36:58.174Z,22.57
2018-09-07T14:39:27.445Z,24.57
2018-09-07T14:41:56.615Z,22.23
2018-09-07T14:44:25.782Z,24.43
2018-09-07T14:46:55.058Z,21.23
2018-09-07T14:49:24.217Z,19.40
2018-09-07T14:51:53.383Z,20.63
2018-09-07T14:54:22.480Z,18.23
2018-09-07T14:56:51.568Z,17.27
2018-09-07T14:59:20.700Z,21.17
2018-09-07T15:01:49.834Z,18.80
2018-09-07T15:04:18.917Z,18.07
2018-09-07T15:06:47.992Z,17.70
2018-09-07T15:09:19.098Z,17.33
2018-09-07T15:11:48.315Z,17.87
2018-09-07T15:14:17.465Z,15.50
2018-09-07T15:16:46.573Z,16.77
2018-09-07T15:19:15.662Z,17.50
2018-09-07T15:21:44.793Z,14.70
2018-09-07T15:24:14.015Z,13.50
2018-09-07T15:26:43.209Z,16.47
2018-09-07T15:29:12.367Z,12.57
2018-09-07T15:31:41.566Z,13.30
2018-09-07T15:34:10.839Z,14.53
2018-09-07T15:36:40.001Z,11.80
2018-09-07T15:39:10.669Z,11.67
2018-09-07T15:41:39.991Z,8.73
2018-09-07T15:44:09.313Z,9.77
2018-09-07T15:46:38.866Z,7.40
2018-09-07T15:49:08.441Z,8.13
2018-09-07T15:51:37.877Z,6.13
2018-09-07T15:54:07.436Z,9.57
2018-09-07T15:56:36.787Z,7.23
2018-09-07T15:59:05.948Z,10.60
2018-09-07T16:01:35.104Z,6.20
2018-09-07T16:04:04.290Z,5.43
2018-09-07T16:06:33.477Z,5.23
2018-09-07T16:09:02.652Z,10.03
2018-09-07T16:11:31.743Z,7.37
2018-09-07T16:14:00.848Z,4.83
2018-09-07T16:16:30.009Z,5.23
2018-09-07T16:18:59.014Z,5.20
2018-09-07T16:21:28.109Z,4.93
2018-09-07T16:23:57.352Z,5.77
2018-09-07T16:26:26.486Z,5.63
2018-09-07T16:28:55.646Z,3.60
2018-09-07T16:31:25.013Z,3.20
2018-09-07T16:33:54.280Z,4.10
2018-09-07T16:36:23.735Z,8.50
2018-09-07T16:38:53.262Z,5.60
2018-09-07T16:41:22.786Z,4.13
2018-09-07T16:43:52.269Z,4.80
2018-09-07T16:46:21.620Z,5.90
2018-09-07T16:48:51.045Z,6.00
2018-09-07T16:51:20.500Z,4.70
2018-09-07T16:53:49.995Z,3.93
2018-09-07T16:56:19.241Z,5.50
2018-09-07T16:58:49.048Z,3.30
2018-09-07T17:01:18.232Z,3.20
2018-09-07T17:03:47.486Z,4.00
2018-09-07T17:06:16.583Z,5.00
2018-09-07T17:08:45.669Z,3.93
2018-09-07T17:11:15.007Z,3.90
2018-09-07T17:13:44.312Z,4.73
2018-09-07T17:16:13.617Z,4.30
2018-09-07T17:18:42.803Z,4.47
2018-09-07T17:21:12.064Z,4.80
2018-09-07T17:23:41.285Z,3.17
2018-09-07T17:26:10.369Z,3.53
2018-09-07T17:28:39.468Z,7.27
2018-09-07T17:31:08.691Z,3.77
2018-09-07T17:33:37.777Z,3.27
2018-09-07T17:36:06.938Z,6.13
2018-09-07T17:38:36.149Z,5.37
2018-09-07T17:41:05.303Z,4.50
2018-09-07T17:43:34.551Z,4.23
2018-09-07T17:46:03.800Z,4.27
2018-09-07T17:48:33.077Z,6.10
2018-09-07T17:51:02.237Z,8.13
2018-09-07T17:53:31.639Z,4.20
2018-09-07T17:56:01.491Z,6.47
2018-09-07T17:58:31.032Z,6.17
2018-09-07T18:01:00.291Z,4.23
2018-09-07T18:03:29.795Z,4.60
2018-09-07T18:06:00.620Z,6.83
2018-09-07T18:08:30.030Z,4.70
2018-09-07T18:10:59.212Z,7.43
2018-09-07T18:13:28.416Z,7.30
2018-09-07T18:15:57.714Z,5.33
2018-09-07T18:18:26.853Z,9.03
2018-09-07T18:20:56.064Z,5.87
2018-09-07T18:23:25.238Z,4.97
2018-09-07T18:25:54.755Z,7.60
2018-09-07T18:28:24.128Z,5.93
2018-09-07T18:30:53.395Z,6.63
2018-09-07T18:33:23.546Z,6.20
2018-09-07T18:35:53.147Z,6.57
2018-09-07T18:38:21.961Z,8.30
2018-09-07T18:40:51.261Z,7.13
2018-09-07T18:43:20.517Z,5.27
2018-09-07T18:45:49.853Z,9.97
2018-09-07T18:48:19.107Z,8.83
2018-09-07T18:50:48.222Z,9.27
2018-09-07T18:53:17.380Z,5.40
2018-09-07T18:55:47.973Z,5.60
2018-09-07T18:58:17.058Z,6.13
2018-09-07T19:00:46.264Z,6.60
2018-09-07T19:03:15.513Z,7.80
2018-09-07T19:05:44.925Z,8.07
2018-09-07T19:08:14.512Z,7.83
2018-09-07T19:10:44.471Z,10.10
2018-09-07T19:13:14.332Z,7.60
2018-09-07T19:15:43.994Z,5.83
2018-09-07T19:18:13.274Z,8.53
2018-09-07T19:20:43.521Z,8.20
2018-09-07T19:23:13.507Z,8.50
2018-09-07T19:25:45.340Z,6.10
2018-09-07T19:28:14.967Z,9.10
2018-09-07T19:30:44.294Z,5.20
2018-09-07T19:33:13.655Z,5.63
2018-09-07T19:35:42.880Z,5.07
2018-09-07T19:38:12.068Z,6.80
2018-09-07T19:40:41.310Z,5.80
2018-09-07T19:43:10.588Z,7.93
2018-09-07T19:45:39.895Z,7.50
2018-09-07T19:48:09.151Z,5.53
2018-09-07T19:50:38.338Z,9.87
2018-09-07T19:53:07.577Z,5.90
2018-09-07T19:55:36.695Z,10.10
2018-09-07T19:58:05.854Z,5.83
2018-09-07T20:00:35.068Z,8.40
2018-09-07T20:03:05.819Z,8.40
2018-09-07T20:05:35.033Z,9.63
2018-09-07T20:08:04.140Z,8.30
2018-09-07T20:10:33.366Z,8.07
2018-09-07T20:13:02.608Z,9.10
2018-09-07T20:15:31.812Z,8.97
2018-09-07T20:18:00.937Z,10.60
2018-09-07T20:20:30.147Z,9.50
2018-09-07T20:22:59.213Z,9.80
2018-09-07T20:25:29.464Z,5.63
2018-09-07T20:27:58.684Z,6.63
2018-09-07T20:30:27.871Z,10.50
2018-09-07T20:32:57.357Z,7.73
2018-09-07T20:35:26.694Z,8.43
2018-09-07T20:37:56.917Z,11.00
2018-09-07T20:40:26.750Z,9.77
2018-09-07T20:42:56.064Z,6.13
2018-09-07T20:45:25.422Z,5.23
2018-09-07T20:47:54.599Z,5.93
2018-09-07T20:50:23.733Z,5.70
2018-09-07T20:52:53.071Z,4.80
2018-09-07T20:55:22.257Z,4.90
2018-09-07T20:57:51.344Z,5.63
2018-09-07T21:00:21.387Z,5.10
2018-09-07T21:02:50.603Z,7.30
2018-09-07T21:05:19.757Z,8.70
2018-09-07T21:07:49.000Z,6.73
2018-09-07T21:10:20.532Z,5.60
2018-09-07T21:12:49.720Z,4.23
2018-09-07T21:15:18.796Z,8.03
2018-09-07T21:17:47.893Z,6.03
2018-09-07T21:20:17.136Z,3.90
2018-09-07T21:22:46.261Z,6.57
2018-09-07T21:25:15.540Z,5.60
2018-09-07T21:27:44.774Z,6.60
2018-09-07T21:30:23.707Z,6.70
2018-09-07T21:32:57.430Z,4.70
2018-09-07T21:35:33.003Z,6.83
2018-09-07T21:38:02.128Z,6.07
2018-09-07T21:40:31.222Z,4.43
2018-09-07T21:43:00.408Z,7.40
2018-09-07T21:45:29.548Z,7.90
2018-09-07T21:47:58.640Z,3.87
2018-09-07T21:50:27.855Z,3.70
2018-09-07T21:52:56.900Z,6.97
2018-09-07T21:55:26.037Z,6.00
2018-09-07T21:57:55.199Z,8.00
2018-09-07T22:00:24.425Z,4.00
2018-09-07T22:02:53.520Z,8.13
2018-09-07T22:05:22.886Z,8.70
2018-09-07T22:07:57.522Z,5.30
2018-09-07T22:10:26.764Z,6.27
2018-09-07T22:12:55.885Z,9.87
2018-09-07T22:15:24.968Z,6.00
2018-09-07T22:17:54.205Z,6.73
2018-09-07T22:20:23.298Z,6.57
2018-09-07T22:22:52.478Z,4.73
2018-09-07T22:25:21.593Z,5.27
2018-09-07T22:27:50.637Z,8.67
2018-09-07T22:30:19.706Z,5.50
2018-09-07T22:32:48.811Z,8.17
2018-09-07T22:35:18.005Z,5.87
2018-09-07T22:37:47.108Z,6.47
2018-09-07T22:40:16.191Z,9.40
2018-09-07T22:42:45.333Z,7.20
2018-09-07T22:45:14.498Z,7.73
2018-09-07T22:47:43.872Z,7.83
2018-09-07T22:50:13.036Z,5.90
2018-09-07T22:52:42.129Z,6.97
2018-09-07T22:55:11.224Z,7.07
2018-09-07T22:57:40.338Z,10.40
2018-09-07T23:00:09.508Z,9.10
2018-09-07T23:02:38.571Z,8.70
2018-09-07T23:05:07.665Z,7.27
2018-09-07T23:07:40.021Z,8.47
2018-09-07T23:10:09.136Z,10.10
2018-09-07T23:12:38.195Z,8.97
2018-09-07T23:15:07.308Z,7.80
2018-09-07T23:17:36.389Z,8.17
2018-09-07T23:20:05.585Z,7.80
2018-09-07T23:22:34.628Z,9.43
2018-09-07T23:25:03.778Z,8.60
2018-09-07T23:27:32.763Z,8.63
2018-09-07T23:30:01.877Z,8.17
2018-09-07T23:32:30.913Z,15.57
2018-09-07T23:35:00.056Z,11.63
2018-09-07T23:37:29.135Z,9.43
2018-09-07T23:39:58.249Z,9.90
2018-09-07T23:42:27.405Z,13.50
2018-09-07T23:44:56.504Z,8.67
2018-09-07T23:47:25.857Z,9.70
2018-09-07T23:49:55.064Z,7.10
2018-09-07T23:52:24.203Z,7.53
2018-09-07T23:54:53.238Z,9.03
2018-09-07T23:57:22.292Z,6.17
2018-09-07T23:59:51.346Z,7.03
